sensor_id;sensor_type;location;lat;lon;timestamp;P1;durP1;ratioP1;P2;durP2;ratioP2
46086;SDS011;31824;49.648;8.640;2023-08-01T00:01:36;5.35;;;1.15;;
46086;SDS011;31824;49.648;8.640;2023-08-01T00:04:39;4.78;;;1.30;;
46086;SDS011;31824;49.648;8.640;2023-08-01T00:07:41;3.58;;;1.30;;
46086;SDS011;31824;49.648;8.640;2023-08-01T00:10:43;3.28;;;1.30;;
46086;SDS011;31824;49.648;8.640;2023-08-01T00:13:44;5.00;;;1.20;;
46086;SDS011;31824;49.648;8.640;2023-08-01T00:16:46;2.88;;;1.27;;
46086;SDS011;31824;49.648;8.640;2023-08-01T00:19:50;5.40;;;1.42;;
46086;SDS011;31824;49.648;8.640;2023-08-01T00:22:52;2.75;;;0.98;;
46086;SDS011;31824;49.648;8.640;2023-08-01T00:25:54;4.22;;;1.20;;
46086;SDS011;31824;49.648;8.640;2023-08-01T00:28:56;5.35;;;1.63;;
46086;SDS011;31824;49.648;8.640;2023-08-01T00:31:58;3.75;;;1.27;;
46086;SDS011;31824;49.648;8.640;2023-08-01T00:35:01;2.92;;;1.33;;
46086;SDS011;31824;49.648;8.640;2023-08-01T00:38:03;5.38;;;1.27;;
46086;SDS011;31824;49.648;8.640;2023-08-01T00:41:04;4.05;;;1.58;;
46086;SDS011;31824;49.648;8.640;2023-08-01T00:44:06;2.92;;;1.27;;
46086;SDS011;31824;49.648;8.640;2023-08-01T00:47:08;4.43;;;1.50;;
46086;SDS011;31824;49.648;8.640;2023-08-01T00:50:12;2.97;;;1.10;;
46086;SDS011;31824;49.648;8.640;2023-08-01T00:53:13;3.60;;;1.52;;
46086;SDS011;31824;49.648;8.640;2023-08-01T00:56:15;4.88;;;1.27;;
46086;SDS011;31824;49.648;8.640;2023-08-01T00:59:19;3.80;;;1.40;;
46086;SDS011;31824;49.648;8.640;2023-08-01T01:02:21;3.28;;;1.55;;
46086;SDS011;31824;49.648;8.640;2023-08-01T01:05:24;3.25;;;1.15;;
46086;SDS011;31824;49.648;8.640;2023-08-01T01:08:26;3.67;;;1.33;;
46086;SDS011;31824;49.648;8.640;2023-08-01T01:11:28;4.25;;;1.30;;
46086;SDS011;31824;49.648;8.640;2023-08-01T01:14:30;4.07;;;1.50;;
46086;SDS011;31824;49.648;8.640;2023-08-01T01:17:32;2.90;;;1.40;;
46086;SDS011;31824;49.648;8.640;2023-08-01T01:20:35;4.10;;;1.58;;
46086;SDS011;31824;49.648;8.640;2023-08-01T01:23:38;4.90;;;1.52;;
46086;SDS011;31824;49.648;8.640;2023-08-01T01:26:41;4.13;;;1.30;;
46086;SDS011;31824;49.648;8.640;2023-08-01T01:29:44;5.05;;;1.60;;
46086;SDS011;31824;49.648;8.640;2023-08-01T01:32:47;2.97;;;1.30;;
46086;SDS011;31824;49.648;8.640;2023-08-01T01:35:51;3.53;;;1.25;;
46086;SDS011;31824;49.648;8.640;2023-08-01T01:38:53;2.90;;;1.20;;
46086;SDS011;31824;49.648;8.640;2023-08-01T01:41:55;5.20;;;1.58;;
46086;SDS011;31824;49.648;8.640;2023-08-01T01:44:56;4.60;;;1.83;;
46086;SDS011;31824;49.648;8.640;2023-08-01T01:47:58;3.67;;;1.33;;
46086;SDS011;31824;49.648;8.640;2023-08-01T01:51:01;4.78;;;1.50;;
46086;SDS011;31824;49.648;8.640;2023-08-01T01:54:03;3.58;;;1.70;;
46086;SDS011;31824;49.648;8.640;2023-08-01T01:57:05;3.60;;;1.30;;
46086;SDS011;31824;49.648;8.640;2023-08-01T02:00:07;2.22;;;0.98;;
46086;SDS011;31824;49.648;8.640;2023-08-01T02:03:14;5.30;;;1.52;;
46086;SDS011;31824;49.648;8.640;2023-08-01T02:06:17;3.53;;;1.40;;
46086;SDS011;31824;49.648;8.640;2023-08-01T02:09:19;3.45;;;1.33;;
46086;SDS011;31824;49.648;8.640;2023-08-01T02:12:21;4.55;;;1.40;;
46086;SDS011;31824;49.648;8.640;2023-08-01T02:15:23;9.23;;;2.38;;
46086;SDS011;31824;49.648;8.640;2023-08-01T02:18:25;5.43;;;1.27;;
46086;SDS011;31824;49.648;8.640;2023-08-01T02:21:28;3.88;;;1.40;;
46086;SDS011;31824;49.648;8.640;2023-08-01T02:24:30;4.03;;;1.40;;
46086;SDS011;31824;49.648;8.640;2023-08-01T02:27:32;3.80;;;1.35;;
46086;SDS011;31824;49.648;8.640;2023-08-01T02:30:34;3.85;;;1.38;;
46086;SDS011;31824;49.648;8.640;2023-08-01T02:33:36;2.53;;;1.25;;
46086;SDS011;31824;49.648;8.640;2023-08-01T02:36:39;4.45;;;1.48;;
46086;SDS011;31824;49.648;8.640;2023-08-01T02:39:42;2.40;;;1.25;;
46086;SDS011;31824;49.648;8.640;2023-08-01T02:42:44;3.67;;;1.60;;
46086;SDS011;31824;49.648;8.640;2023-08-01T02:45:46;12.15;;;1.63;;
46086;SDS011;31824;49.648;8.640;2023-08-01T02:48:48;6.18;;;1.55;;
46086;SDS011;31824;49.648;8.640;2023-08-01T02:51:51;4.00;;;1.30;;
46086;SDS011;31824;49.648;8.640;2023-08-01T02:54:53;4.45;;;1.50;;
46086;SDS011;31824;49.648;8.640;2023-08-01T02:57:54;2.95;;;1.23;;
46086;SDS011;31824;49.648;8.640;2023-08-01T03:00:56;3.75;;;1.52;;
46086;SDS011;31824;49.648;8.640;2023-08-01T03:03:58;5.72;;;1.40;;
46086;SDS011;31824;49.648;8.640;2023-08-01T03:07:01;4.70;;;1.40;;
46086;SDS011;31824;49.648;8.640;2023-08-01T03:10:03;3.20;;;1.15;;
46086;SDS011;31824;49.648;8.640;2023-08-01T03:13:05;4.00;;;1.40;;
46086;SDS011;31824;49.648;8.640;2023-08-01T03:16:07;4.65;;;1.23;;
46086;SDS011;31824;49.648;8.640;2023-08-01T03:19:10;3.55;;;1.30;;
46086;SDS011;31824;49.648;8.640;2023-08-01T03:22:13;3.53;;;1.58;;
46086;SDS011;31824;49.648;8.640;2023-08-01T03:25:15;5.07;;;1.40;;
46086;SDS011;31824;49.648;8.640;2023-08-01T03:28:17;5.25;;;1.30;;
46086;SDS011;31824;49.648;8.640;2023-08-01T03:31:19;2.83;;;1.23;;
46086;SDS011;31824;49.648;8.640;2023-08-01T03:34:21;4.22;;;1.42;;
46086;SDS011;31824;49.648;8.640;2023-08-01T03:37:24;7.55;;;1.70;;
46086;SDS011;31824;49.648;8.640;2023-08-01T03:40:26;3.08;;;1.20;;
46086;SDS011;31824;49.648;8.640;2023-08-01T03:43:28;4.00;;;1.55;;
46086;SDS011;31824;49.648;8.640;2023-08-01T03:46:29;4.65;;;1.23;;
46086;SDS011;31824;49.648;8.640;2023-08-01T03:49:31;2.72;;;1.10;;
46086;SDS011;31824;49.648;8.640;2023-08-01T03:52:34;5.85;;;1.60;;
46086;SDS011;31824;49.648;8.640;2023-08-01T03:55:36;3.65;;;1.55;;
46086;SDS011;31824;49.648;8.640;2023-08-01T03:58:38;3.80;;;1.27;;
46086;SDS011;31824;49.648;8.640;2023-08-01T04:01:39;3.20;;;1.33;;
46086;SDS011;31824;49.648;8.640;2023-08-01T04:04:41;5.72;;;1.38;;
46086;SDS011;31824;49.648;8.640;2023-08-01T04:07:44;3.47;;;1.42;;
46086;SDS011;31824;49.648;8.640;2023-08-01T04:10:46;2.75;;;1.20;;
46086;SDS011;31824;49.648;8.640;2023-08-01T04:13:48;3.78;;;1.17;;
46086;SDS011;31824;49.648;8.640;2023-08-01T04:16:50;4.00;;;1.13;;
46086;SDS011;31824;49.648;8.640;2023-08-01T04:19:51;3.38;;;1.45;;
46086;SDS011;31824;49.648;8.640;2023-08-01T04:22:55;3.97;;;1.27;;
46086;SDS011;31824;49.648;8.640;2023-08-01T04:25:56;4.82;;;1.25;;
46086;SDS011;31824;49.648;8.640;2023-08-01T04:28:59;5.45;;;1.55;;
46086;SDS011;31824;49.648;8.640;2023-08-01T04:32:01;3.45;;;1.15;;
46086;SDS011;31824;49.648;8.640;2023-08-01T04:35:03;4.18;;;1.30;;
46086;SDS011;31824;49.648;8.640;2023-08-01T04:38:06;5.03;;;1.40;;
46086;SDS011;31824;49.648;8.640;2023-08-01T04:41:09;6.30;;;1.50;;
46086;SDS011;31824;49.648;8.640;2023-08-01T04:44:11;4.68;;;1.15;;
46086;SDS011;31824;49.648;8.640;2023-08-01T04:47:13;3.15;;;1.30;;
46086;SDS011;31824;49.648;8.640;2023-08-01T04:50:15;4.20;;;1.13;;
46086;SDS011;31824;49.648;8.640;2023-08-01T04:53:19;2.05;;;1.00;;
46086;SDS011;31824;49.648;8.640;2023-08-01T04:56:20;4.88;;;1.55;;
46086;SDS011;31824;49.648;8.640;2023-08-01T04:59:22;3.90;;;1.45;;
46086;SDS011;31824;49.648;8.640;2023-08-01T05:02:24;2.63;;;1.15;;
46086;SDS011;31824;49.648;8.640;2023-08-01T05:05:26;4.30;;;1.27;;
46086;SDS011;31824;49.648;8.640;2023-08-01T05:08:29;3.33;;;1.20;;
46086;SDS011;31824;49.648;8.640;2023-08-01T05:11:31;2.78;;;1.33;;
46086;SDS011;31824;49.648;8.640;2023-08-01T05:14:33;6.47;;;1.65;;
46086;SDS011;31824;49.648;8.640;2023-08-01T05:17:34;4.00;;;1.20;;
46086;SDS011;31824;49.648;8.640;2023-08-01T05:20:36;3.38;;;1.17;;
46086;SDS011;31824;49.648;8.640;2023-08-01T05:23:39;3.55;;;1.40;;
46086;SDS011;31824;49.648;8.640;2023-08-01T05:26:41;3.63;;;1.50;;
46086;SDS011;31824;49.648;8.640;2023-08-01T05:29:43;4.78;;;1.15;;
46086;SDS011;31824;49.648;8.640;2023-08-01T05:32:45;2.42;;;1.00;;
46086;SDS011;31824;49.648;8.640;2023-08-01T05:35:48;1.98;;;0.98;;
46086;SDS011;31824;49.648;8.640;2023-08-01T05:38:51;3.42;;;1.00;;
46086;SDS011;31824;49.648;8.640;2023-08-01T05:41:53;2.55;;;1.13;;
46086;SDS011;31824;49.648;8.640;2023-08-01T05:44:55;3.55;;;1.20;;
46086;SDS011;31824;49.648;8.640;2023-08-01T05:47:57;3.85;;;1.05;;
46086;SDS011;31824;49.648;8.640;2023-08-01T05:50:59;4.80;;;1.02;;
46086;SDS011;31824;49.648;8.640;2023-08-01T05:54:02;4.55;;;1.30;;
46086;SDS011;31824;49.648;8.640;2023-08-01T05:57:04;3.10;;;1.10;;
46086;SDS011;31824;49.648;8.640;2023-08-01T06:00:07;3.40;;;1.30;;
46086;SDS011;31824;49.648;8.640;2023-08-01T06:03:13;2.58;;;0.77;;
46086;SDS011;31824;49.648;8.640;2023-08-01T06:06:15;6.20;;;1.60;;
46086;SDS011;31824;49.648;8.640;2023-08-01T06:09:18;4.38;;;1.00;;
46086;SDS011;31824;49.648;8.640;2023-08-01T06:12:22;3.45;;;1.50;;
46086;SDS011;31824;49.648;8.640;2023-08-01T06:15:24;3.00;;;1.20;;
46086;SDS011;31824;49.648;8.640;2023-08-01T06:18:25;5.45;;;1.45;;
46086;SDS011;31824;49.648;8.640;2023-08-01T06:21:27;4.63;;;1.65;;
46086;SDS011;31824;49.648;8.640;2023-08-01T06:24:30;5.38;;;1.63;;
46086;SDS011;31824;49.648;8.640;2023-08-01T06:27:32;5.43;;;1.75;;
46086;SDS011;31824;49.648;8.640;2023-08-01T06:30:34;4.78;;;1.60;;
46086;SDS011;31824;49.648;8.640;2023-08-01T06:33:36;4.32;;;1.83;;
46086;SDS011;31824;49.648;8.640;2023-08-01T06:36:38;4.15;;;1.80;;
46086;SDS011;31824;49.648;8.640;2023-08-01T06:39:41;8.55;;;1.77;;
46086;SDS011;31824;49.648;8.640;2023-08-01T06:42:43;4.00;;;1.38;;
46086;SDS011;31824;49.648;8.640;2023-08-01T06:45:45;3.25;;;1.33;;
46086;SDS011;31824;49.648;8.640;2023-08-01T06:48:47;5.45;;;1.50;;
46086;SDS011;31824;49.648;8.640;2023-08-01T06:51:48;4.70;;;1.83;;
46086;SDS011;31824;49.648;8.640;2023-08-01T06:54:52;3.60;;;1.25;;
46086;SDS011;31824;49.648;8.640;2023-08-01T06:57:53;4.22;;;1.58;;
46086;SDS011;31824;49.648;8.640;2023-08-01T07:00:55;3.15;;;1.15;;
46086;SDS011;31824;49.648;8.640;2023-08-01T07:03:57;4.28;;;1.23;;
46086;SDS011;31824;49.648;8.640;2023-08-01T07:06:59;5.30;;;1.30;;
46086;SDS011;31824;49.648;8.640;2023-08-01T07:10:02;6.97;;;1.42;;
46086;SDS011;31824;49.648;8.640;2023-08-01T07:13:03;6.07;;;1.40;;
46086;SDS011;31824;49.648;8.640;2023-08-01T07:16:05;4.93;;;1.02;;
46086;SDS011;31824;49.648;8.640;2023-08-01T07:19:07;3.58;;;1.25;;
46086;SDS011;31824;49.648;8.640;2023-08-01T07:22:09;6.20;;;1.40;;
46086;SDS011;31824;49.648;8.640;2023-08-01T07:25:13;3.20;;;1.17;;
46086;SDS011;31824;49.648;8.640;2023-08-01T07:28:15;3.45;;;1.25;;
46086;SDS011;31824;49.648;8.640;2023-08-01T07:31:16;2.85;;;1.17;;
46086;SDS011;31824;49.648;8.640;2023-08-01T07:34:18;3.17;;;1.10;;
46086;SDS011;31824;49.648;8.640;2023-08-01T07:37:24;4.07;;;1.00;;
46086;SDS011;31824;49.648;8.640;2023-08-01T07:40:27;2.63;;;0.93;;
46086;SDS011;31824;49.648;8.640;2023-08-01T07:43:29;3.20;;;1.20;;
46086;SDS011;31824;49.648;8.640;2023-08-01T07:46:31;2.70;;;1.10;;
46086;SDS011;31824;49.648;8.640;2023-08-01T07:49:33;4.25;;;1.17;;
46086;SDS011;31824;49.648;8.640;2023-08-01T07:52:35;3.15;;;1.00;;
46086;SDS011;31824;49.648;8.640;2023-08-01T07:55:38;5.30;;;0.98;;
46086;SDS011;31824;49.648;8.640;2023-08-01T07:58:39;2.72;;;1.10;;
46086;SDS011;31824;49.648;8.640;2023-08-01T08:01:41;2.92;;;1.20;;
46086;SDS011;31824;49.648;8.640;2023-08-01T08:04:43;4.10;;;1.00;;
46086;SDS011;31824;49.648;8.640;2023-08-01T08:07:45;7.22;;;1.20;;
46086;SDS011;31824;49.648;8.640;2023-08-01T08:10:48;2.83;;;1.00;;
46086;SDS011;31824;49.648;8.640;2023-08-01T08:13:50;2.13;;;0.47;;
46086;SDS011;31824;49.648;8.640;2023-08-01T08:16:51;2.05;;;0.80;;
46086;SDS011;31824;49.648;8.640;2023-08-01T08:19:53;1.95;;;0.70;;
46086;SDS011;31824;49.648;8.640;2023-08-01T08:22:55;1.05;;;0.45;;
46086;SDS011;31824;49.648;8.640;2023-08-01T08:25:58;1.17;;;0.40;;
46086;SDS011;31824;49.648;8.640;2023-08-01T08:29:00;2.15;;;0.50;;
46086;SDS011;31824;49.648;8.640;2023-08-01T08:32:02;1.30;;;0.60;;
46086;SDS011;31824;49.648;8.640;2023-08-01T08:35:04;2.58;;;0.40;;
46086;SDS011;31824;49.648;8.640;2023-08-01T08:38:06;0.57;;;0.28;;
46086;SDS011;31824;49.648;8.640;2023-08-01T08:41:10;2.30;;;0.40;;
46086;SDS011;31824;49.648;8.640;2023-08-01T08:44:14;1.55;;;0.60;;
46086;SDS011;31824;49.648;8.640;2023-08-01T08:47:26;1.65;;;0.60;;
46086;SDS011;31824;49.648;8.640;2023-08-01T08:50:30;2.08;;;0.40;;
46086;SDS011;31824;49.648;8.640;2023-08-01T08:53:32;3.28;;;0.65;;
46086;SDS011;31824;49.648;8.640;2023-08-01T08:56:37;1.23;;;0.35;;
46086;SDS011;31824;49.648;8.640;2023-08-01T09:02:42;2.75;;;0.40;;
46086;SDS011;31824;49.648;8.640;2023-08-01T09:05:45;0.45;;;0.20;;
46086;SDS011;31824;49.648;8.640;2023-08-01T09:08:50;1.05;;;0.30;;
46086;SDS011;31824;49.648;8.640;2023-08-01T09:11:58;0.47;;;0.25;;
46086;SDS011;31824;49.648;8.640;2023-08-01T09:15:00;1.75;;;0.45;;
46086;SDS011;31824;49.648;8.640;2023-08-01T09:18:05;0.95;;;0.22;;
46086;SDS011;31824;49.648;8.640;2023-08-01T09:21:08;0.50;;;0.20;;
46086;SDS011;31824;49.648;8.640;2023-08-01T09:24:10;0.90;;;0.40;;
46086;SDS011;31824;49.648;8.640;2023-08-01T09:27:14;1.27;;;0.32;;
46086;SDS011;31824;49.648;8.640;2023-08-01T09:30:15;1.23;;;0.30;;
46086;SDS011;31824;49.648;8.640;2023-08-01T09:33:18;3.60;;;0.43;;
46086;SDS011;31824;49.648;8.640;2023-08-01T09:36:20;1.80;;;0.20;;
46086;SDS011;31824;49.648;8.640;2023-08-01T09:39:23;2.25;;;0.40;;
46086;SDS011;31824;49.648;8.640;2023-08-01T09:42:26;0.80;;;0.32;;
46086;SDS011;31824;49.648;8.640;2023-08-01T09:45:28;0.82;;;0.30;;
46086;SDS011;31824;49.648;8.640;2023-08-01T09:48:30;1.95;;;0.30;;
46086;SDS011;31824;49.648;8.640;2023-08-01T09:51:32;0.75;;;0.13;;
46086;SDS011;31824;49.648;8.640;2023-08-01T09:54:33;0.70;;;0.20;;
46086;SDS011;31824;49.648;8.640;2023-08-01T09:57:37;1.55;;;0.38;;
46086;SDS011;31824;49.648;8.640;2023-08-01T10:00:42;0.40;;;0.28;;
46086;SDS011;31824;49.648;8.640;2023-08-01T10:03:46;0.50;;;0.20;;
46086;SDS011;31824;49.648;8.640;2023-08-01T10:06:53;2.97;;;0.30;;
46086;SDS011;31824;49.648;8.640;2023-08-01T10:09:57;1.10;;;0.20;;
46086;SDS011;31824;49.648;8.640;2023-08-01T10:13:01;0.98;;;0.20;;
46086;SDS011;31824;49.648;8.640;2023-08-01T10:16:03;1.48;;;0.50;;
46086;SDS011;31824;49.648;8.640;2023-08-01T10:19:07;2.45;;;0.20;;
46086;SDS011;31824;49.648;8.640;2023-08-01T10:22:10;0.50;;;0.20;;
46086;SDS011;31824;49.648;8.640;2023-08-01T10:25:13;0.70;;;0.20;;
46086;SDS011;31824;49.648;8.640;2023-08-01T10:28:17;0.75;;;0.20;;
46086;SDS011;31824;49.648;8.640;2023-08-01T10:31:19;0.60;;;0.20;;
46086;SDS011;31824;49.648;8.640;2023-08-01T10:37:25;0.65;;;0.25;;
46086;SDS011;31824;49.648;8.640;2023-08-01T10:40:32;1.55;;;0.25;;
46086;SDS011;31824;49.648;8.640;2023-08-01T10:43:36;0.40;;;0.15;;
46086;SDS011;31824;49.648;8.640;2023-08-01T10:46:47;0.60;;;0.20;;
46086;SDS011;31824;49.648;8.640;2023-08-01T10:49:50;0.50;;;0.10;;
46086;SDS011;31824;49.648;8.640;2023-08-01T10:53:00;0.43;;;0.15;;
46086;SDS011;31824;49.648;8.640;2023-08-01T10:56:04;0.85;;;0.25;;
46086;SDS011;31824;49.648;8.640;2023-08-01T10:59:07;0.65;;;0.20;;
46086;SDS011;31824;49.648;8.640;2023-08-01T11:02:10;1.98;;;0.50;;
46086;SDS011;31824;49.648;8.640;2023-08-01T11:05:12;1.42;;;0.20;;
46086;SDS011;31824;49.648;8.640;2023-08-01T11:08:13;0.80;;;0.30;;
46086;SDS011;31824;49.648;8.640;2023-08-01T11:11:15;1.17;;;0.30;;
46086;SDS011;31824;49.648;8.640;2023-08-01T11:14:20;1.35;;;0.30;;
46086;SDS011;31824;49.648;8.640;2023-08-01T11:17:23;0.63;;;0.20;;
46086;SDS011;31824;49.648;8.640;2023-08-01T11:20:26;1.05;;;0.30;;
46086;SDS011;31824;49.648;8.640;2023-08-01T11:23:30;0.60;;;0.22;;
46086;SDS011;31824;49.648;8.640;2023-08-01T11:26:32;1.33;;;0.30;;
46086;SDS011;31824;49.648;8.640;2023-08-01T11:29:37;1.98;;;0.22;;
46086;SDS011;31824;49.648;8.640;2023-08-01T11:32:41;1.35;;;0.30;;
46086;SDS011;31824;49.648;8.640;2023-08-01T11:35:43;0.93;;;0.30;;
46086;SDS011;31824;49.648;8.640;2023-08-01T11:38:45;0.22;;;0.10;;
46086;SDS011;31824;49.648;8.640;2023-08-01T11:41:47;1.58;;;0.40;;
46086;SDS011;31824;49.648;8.640;2023-08-01T11:44:50;0.85;;;0.25;;
46086;SDS011;31824;49.648;8.640;2023-08-01T11:47:52;0.95;;;0.28;;
46086;SDS011;31824;49.648;8.640;2023-08-01T11:50:56;3.30;;;0.28;;
46086;SDS011;31824;49.648;8.640;2023-08-01T11:53:59;2.75;;;0.38;;
46086;SDS011;31824;49.648;8.640;2023-08-01T11:57:02;3.78;;;0.32;;
46086;SDS011;31824;49.648;8.640;2023-08-01T12:00:06;1.83;;;0.50;;
46086;SDS011;31824;49.648;8.640;2023-08-01T12:03:12;1.55;;;0.30;;
46086;SDS011;31824;49.648;8.640;2023-08-01T12:06:15;1.15;;;0.30;;
46086;SDS011;31824;49.648;8.640;2023-08-01T12:09:18;1.50;;;0.30;;
46086;SDS011;31824;49.648;8.640;2023-08-01T12:12:21;1.05;;;0.30;;
46086;SDS011;31824;49.648;8.640;2023-08-01T12:15:24;0.93;;;0.30;;
46086;SDS011;31824;49.648;8.640;2023-08-01T12:18:29;0.80;;;0.20;;
46086;SDS011;31824;49.648;8.640;2023-08-01T12:21:34;0.90;;;0.30;;
46086;SDS011;31824;49.648;8.640;2023-08-01T12:24:36;1.02;;;0.32;;
46086;SDS011;31824;49.648;8.640;2023-08-01T12:27:39;2.47;;;0.35;;
46086;SDS011;31824;49.648;8.640;2023-08-01T12:30:42;1.20;;;0.40;;
46086;SDS011;31824;49.648;8.640;2023-08-01T12:33:45;0.73;;;0.30;;
46086;SDS011;31824;49.648;8.640;2023-08-01T12:36:47;0.43;;;0.22;;
46086;SDS011;31824;49.648;8.640;2023-08-01T12:39:49;1.70;;;0.43;;
46086;SDS011;31824;49.648;8.640;2023-08-01T12:42:51;1.27;;;0.30;;
46086;SDS011;31824;49.648;8.640;2023-08-01T12:45:54;1.40;;;0.28;;
46086;SDS011;31824;49.648;8.640;2023-08-01T12:48:58;1.13;;;0.40;;
46086;SDS011;31824;49.648;8.640;2023-08-01T12:52:00;0.65;;;0.30;;
46086;SDS011;31824;49.648;8.640;2023-08-01T12:55:04;0.68;;;0.30;;
46086;SDS011;31824;49.648;8.640;2023-08-01T12:58:06;1.27;;;0.40;;
46086;SDS011;31824;49.648;8.640;2023-08-01T13:01:09;1.20;;;0.40;;
46086;SDS011;31824;49.648;8.640;2023-08-01T13:04:11;1.52;;;0.32;;
46086;SDS011;31824;49.648;8.640;2023-08-01T13:07:13;1.60;;;0.52;;
46086;SDS011;31824;49.648;8.640;2023-08-01T13:10:15;1.50;;;0.40;;
46086;SDS011;31824;49.648;8.640;2023-08-01T13:13:17;2.55;;;0.50;;
46086;SDS011;31824;49.648;8.640;2023-08-01T13:16:20;1.42;;;0.50;;
46086;SDS011;31824;49.648;8.640;2023-08-01T13:19:22;1.52;;;0.40;;
46086;SDS011;31824;49.648;8.640;2023-08-01T13:22:25;1.63;;;0.50;;
46086;SDS011;31824;49.648;8.640;2023-08-01T13:25:27;2.35;;;0.47;;
46086;SDS011;31824;49.648;8.640;2023-08-01T13:28:29;3.17;;;0.20;;
46086;SDS011;31824;49.648;8.640;2023-08-01T13:31:32;2.53;;;0.43;;
46086;SDS011;31824;49.648;8.640;2023-08-01T13:34:34;1.10;;;0.38;;
46086;SDS011;31824;49.648;8.640;2023-08-01T13:37:35;1.45;;;0.50;;
46086;SDS011;31824;49.648;8.640;2023-08-01T13:40:37;2.83;;;0.55;;
46086;SDS011;31824;49.648;8.640;2023-08-01T13:43:39;1.48;;;0.40;;
46086;SDS011;31824;49.648;8.640;2023-08-01T13:46:42;10.77;;;1.33;;
46086;SDS011;31824;49.648;8.640;2023-08-01T13:49:44;9.63;;;1.13;;
46086;SDS011;31824;49.648;8.640;2023-08-01T13:52:46;0.63;;;0.40;;
46086;SDS011;31824;49.648;8.640;2023-08-01T13:55:47;1.52;;;0.50;;
46086;SDS011;31824;49.648;8.640;2023-08-01T13:58:49;0.88;;;0.28;;
46086;SDS011;31824;49.648;8.640;2023-08-01T14:01:53;2.88;;;0.70;;
46086;SDS011;31824;49.648;8.640;2023-08-01T14:04:54;1.65;;;0.50;;
46086;SDS011;31824;49.648;8.640;2023-08-01T14:07:56;2.45;;;0.43;;
46086;SDS011;31824;49.648;8.640;2023-08-01T14:10:58;1.58;;;0.47;;
46086;SDS011;31824;49.648;8.640;2023-08-01T14:13:59;2.92;;;0.55;;
46086;SDS011;31824;49.648;8.640;2023-08-01T14:17:03;0.85;;;0.40;;
46086;SDS011;31824;49.648;8.640;2023-08-01T14:20:24;2.15;;;0.45;;
46086;SDS011;31824;49.648;8.640;2023-08-01T14:23:26;0.85;;;0.40;;
46086;SDS011;31824;49.648;8.640;2023-08-01T14:26:28;2.05;;;0.63;;
46086;SDS011;31824;49.648;8.640;2023-08-01T14:29:30;2.00;;;0.50;;
46086;SDS011;31824;49.648;8.640;2023-08-01T14:32:36;1.98;;;0.60;;
46086;SDS011;31824;49.648;8.640;2023-08-01T14:35:38;1.35;;;0.40;;
46086;SDS011;31824;49.648;8.640;2023-08-01T14:38:40;1.33;;;0.60;;
46086;SDS011;31824;49.648;8.640;2023-08-01T14:41:42;1.27;;;0.52;;
46086;SDS011;31824;49.648;8.640;2023-08-01T14:45:04;1.83;;;0.43;;
46086;SDS011;31824;49.648;8.640;2023-08-01T14:48:08;1.77;;;0.52;;
46086;SDS011;31824;49.648;8.640;2023-08-01T14:51:09;2.15;;;0.45;;
46086;SDS011;31824;49.648;8.640;2023-08-01T14:54:11;2.03;;;0.40;;
46086;SDS011;31824;49.648;8.640;2023-08-01T14:57:16;1.55;;;0.30;;
46086;SDS011;31824;49.648;8.640;2023-08-01T15:00:17;1.42;;;0.50;;
46086;SDS011;31824;49.648;8.640;2023-08-01T15:03:20;1.35;;;0.30;;
46086;SDS011;31824;49.648;8.640;2023-08-01T15:06:22;1.38;;;0.40;;
46086;SDS011;31824;49.648;8.640;2023-08-01T15:09:25;2.47;;;0.50;;
46086;SDS011;31824;49.648;8.640;2023-08-01T15:12:27;2.08;;;0.50;;
46086;SDS011;31824;49.648;8.640;2023-08-01T15:15:29;2.33;;;0.35;;
46086;SDS011;31824;49.648;8.640;2023-08-01T15:18:38;1.65;;;0.43;;
46086;SDS011;31824;49.648;8.640;2023-08-01T15:21:39;1.52;;;0.40;;
46086;SDS011;31824;49.648;8.640;2023-08-01T15:24:42;2.80;;;0.63;;
46086;SDS011;31824;49.648;8.640;2023-08-01T15:27:44;2.55;;;0.52;;
46086;SDS011;31824;49.648;8.640;2023-08-01T15:30:45;1.70;;;0.40;;
46086;SDS011;31824;49.648;8.640;2023-08-01T15:33:48;1.00;;;0.30;;
46086;SDS011;31824;49.648;8.640;2023-08-01T15:36:50;1.33;;;0.50;;
46086;SDS011;31824;49.648;8.640;2023-08-01T15:40:10;1.77;;;0.30;;
46086;SDS011;31824;49.648;8.640;2023-08-01T15:43:13;2.08;;;0.57;;
46086;SDS011;31824;49.648;8.640;2023-08-01T15:46:15;1.60;;;0.47;;
46086;SDS011;31824;49.648;8.640;2023-08-01T15:49:18;2.30;;;0.70;;
46086;SDS011;31824;49.648;8.640;2023-08-01T15:52:20;0.95;;;0.30;;
46086;SDS011;31824;49.648;8.640;2023-08-01T15:55:21;2.40;;;0.40;;
46086;SDS011;31824;49.648;8.640;2023-08-01T15:58:23;1.80;;;0.47;;
46086;SDS011;31824;49.648;8.640;2023-08-01T16:01:26;2.50;;;0.40;;
46086;SDS011;31824;49.648;8.640;2023-08-01T16:04:29;1.95;;;0.57;;
46086;SDS011;31824;49.648;8.640;2023-08-01T16:07:31;2.15;;;0.90;;
46086;SDS011;31824;49.648;8.640;2023-08-01T16:10:33;4.50;;;0.60;;
46086;SDS011;31824;49.648;8.640;2023-08-01T16:13:35;0.63;;;0.30;;
46086;SDS011;31824;49.648;8.640;2023-08-01T16:16:36;2.67;;;0.30;;
46086;SDS011;31824;49.648;8.640;2023-08-01T16:19:39;2.38;;;0.60;;
46086;SDS011;31824;49.648;8.640;2023-08-01T16:22:41;2.45;;;0.60;;
46086;SDS011;31824;49.648;8.640;2023-08-01T16:25:43;1.40;;;0.32;;
46086;SDS011;31824;49.648;8.640;2023-08-01T16:28:44;2.50;;;0.50;;
46086;SDS011;31824;49.648;8.640;2023-08-01T16:31:46;3.17;;;0.40;;
46086;SDS011;31824;49.648;8.640;2023-08-01T16:34:49;4.32;;;0.50;;
46086;SDS011;31824;49.648;8.640;2023-08-01T16:37:51;1.65;;;0.55;;
46086;SDS011;31824;49.648;8.640;2023-08-01T16:40:53;1.08;;;0.40;;
46086;SDS011;31824;49.648;8.640;2023-08-01T16:43:55;1.50;;;0.40;;
46086;SDS011;31824;49.648;8.640;2023-08-01T16:46:57;1.38;;;0.40;;
46086;SDS011;31824;49.648;8.640;2023-08-01T16:50:01;1.23;;;0.35;;
46086;SDS011;31824;49.648;8.640;2023-08-01T16:53:02;1.70;;;0.43;;
46086;SDS011;31824;49.648;8.640;2023-08-01T16:56:04;2.47;;;0.60;;
46086;SDS011;31824;49.648;8.640;2023-08-01T16:59:06;2.67;;;0.60;;
46086;SDS011;31824;49.648;8.640;2023-08-01T17:02:08;1.10;;;0.30;;
46086;SDS011;31824;49.648;8.640;2023-08-01T17:05:12;1.42;;;0.38;;
46086;SDS011;31824;49.648;8.640;2023-08-01T17:08:15;2.97;;;0.40;;
46086;SDS011;31824;49.648;8.640;2023-08-01T17:11:17;1.45;;;0.40;;
46086;SDS011;31824;49.648;8.640;2023-08-01T17:14:19;1.38;;;0.30;;
46086;SDS011;31824;49.648;8.640;2023-08-01T17:17:20;2.33;;;0.60;;
46086;SDS011;31824;49.648;8.640;2023-08-01T17:20:24;3.03;;;0.47;;
46086;SDS011;31824;49.648;8.640;2023-08-01T17:23:25;1.17;;;0.30;;
46086;SDS011;31824;49.648;8.640;2023-08-01T17:26:27;1.20;;;0.38;;
46086;SDS011;31824;49.648;8.640;2023-08-01T17:29:29;1.80;;;0.47;;
46086;SDS011;31824;49.648;8.640;2023-08-01T17:32:31;1.58;;;0.43;;
46086;SDS011;31824;49.648;8.640;2023-08-01T17:35:34;0.50;;;0.40;;
46086;SDS011;31824;49.648;8.640;2023-08-01T17:38:36;1.40;;;0.43;;
46086;SDS011;31824;49.648;8.640;2023-08-01T17:41:40;1.02;;;0.25;;
46086;SDS011;31824;49.648;8.640;2023-08-01T17:44:42;0.73;;;0.30;;
46086;SDS011;31824;49.648;8.640;2023-08-01T17:47:44;2.72;;;0.50;;
46086;SDS011;31824;49.648;8.640;2023-08-01T17:50:47;1.38;;;0.30;;
46086;SDS011;31824;49.648;8.640;2023-08-01T17:53:49;0.82;;;0.20;;
46086;SDS011;31824;49.648;8.640;2023-08-01T17:56:50;0.73;;;0.20;;
46086;SDS011;31824;49.648;8.640;2023-08-01T17:59:56;3.22;;;0.43;;
46086;SDS011;31824;49.648;8.640;2023-08-01T18:02:57;1.08;;;0.25;;
46086;SDS011;31824;49.648;8.640;2023-08-01T18:06:05;1.40;;;0.28;;
46086;SDS011;31824;49.648;8.640;2023-08-01T18:09:08;1.13;;;0.30;;
46086;SDS011;31824;49.648;8.640;2023-08-01T18:12:10;1.17;;;0.38;;
46086;SDS011;31824;49.648;8.640;2023-08-01T18:15:12;0.32;;;0.13;;
46086;SDS011;31824;49.648;8.640;2023-08-01T18:18:13;0.90;;;0.30;;
46086;SDS011;31824;49.648;8.640;2023-08-01T18:21:17;2.55;;;0.52;;
46086;SDS011;31824;49.648;8.640;2023-08-01T18:24:19;1.13;;;0.40;;
46086;SDS011;31824;49.648;8.640;2023-08-01T18:27:20;1.10;;;0.30;;